Time;durP1;ratioP1;P1;durP2;ratioP2;P2;SDS_P1;SDS_P2;PMS_P1;PMS_P2;Temp;Humidity;BMP_temperature;BMP_pressure;BME280_temperature;BME280_humidity;BME280_pressure;Samples;Min_cycle;Max_cycle;Signal;HPM_P1;HPM_P2
2022/01/31 00:04:29;;;;;;;11.30;6.00;;;;;;;;;;21079636;28;20056;-58
2022/01/31 00:14:41;;;;;;;9.45;5.00;;;;;;;;;;21077998;28;20048;-53
2022/01/31 00:24:43;;;;;;;6.13;3.45;;;;;;;;;;21078206;28;20052;-54
2022/01/31 00:34:45;;;;;;;7.47;3.88;;;;;;;;;;21078022;28;20044;-55
2022/01/31 00:44:49;;;;;;;7.03;3.00;;;;;;;;;;21077690;28;20074;-54
2022/01/31 00:54:51;;;;;;;7.35;3.20;;;;;;;;;;21086879;28;20048;-53
2022/01/31 01:04:53;;;;;;;5.38;3.17;;;;;;;;;;21093468;28;20063;-53
2022/01/31 01:14:55;;;;;;;5.35;2.95;;;;;;;;;;21093602;28;20044;-53
2022/01/31 01:24:58;;;;;;;9.13;4.20;;;;;;;;;;21091111;28;20239;-53
2022/01/31 01:35:03;;;;;;;5.78;3.40;;;;;;;;;;21091164;28;20449;-53
2022/01/31 01:45:05;;;;;;;6.53;2.97;;;;;;;;;;21090566;28;20476;-53
2022/01/31 01:55:08;;;;;;;6.78;3.53;;;;;;;;;;21089892;28;20422;-53
2022/01/31 02:05:09;;;;;;;6.78;3.85;;;;;;;;;;21087718;28;20140;-52
2022/01/31 02:15:11;;;;;;;9.63;4.03;;;;;;;;;;21087890;28;20131;-52
2022/01/31 02:25:14;;;;;;;7.10;4.72;;;;;;;;;;21087085;28;20052;-55
2022/01/31 02:35:16;;;;;;;6.35;3.42;;;;;;;;;;21087847;28;20048;-53
2022/01/31 02:45:18;;;;;;;6.88;3.58;;;;;;;;;;21085582;28;20052;-52
2022/01/31 02:55:20;;;;;;;13.65;5.82;;;;;;;;;;21084088;28;20052;-53
2022/01/31 03:05:22;;;;;;;6.15;4.15;;;;;;;;;;21083772;28;20056;-53
2022/01/31 03:15:23;;;;;;;8.13;4.00;;;;;;;;;;21084037;28;20050;-52
2022/01/31 03:25:25;;;;;;;4.80;3.13;;;;;;;;;;21082278;28;20063;-52
2022/01/31 03:35:27;;;;;;;7.00;3.17;;;;;;;;;;21082081;28;20469;-53
2022/01/31 03:45:37;;;;;;;6.43;3.30;;;;;;;;;;21081256;28;20388;-54
2022/01/31 03:55:38;;;;;;;6.18;3.30;;;;;;;;;;21080200;28;20048;-53
2022/01/31 04:05:41;;;;;;;5.78;3.03;;;;;;;;;;21079357;28;20139;-53
2022/01/31 04:15:43;;;;;;;8.00;3.15;;;;;;;;;;21078882;28;20070;-53
2022/01/31 04:26:12;;;;;;;5.28;2.95;;;;;;;;;;21078581;28;20470;-52
2022/01/31 04:36:33;;;;;;;5.10;2.90;;;;;;;;;;21078865;28;20040;-52
2022/01/31 04:46:55;;;;;;;7.00;3.63;;;;;;;;;;21076732;28;20048;-53
2022/01/31 04:57:17;;;;;;;9.32;3.75;;;;;;;;;;21078164;28;20044;-53
2022/01/31 05:07:39;;;;;;;5.50;3.10;;;;;;;;;;21075836;28;20442;-54
2022/01/31 05:18:00;;;;;;;5.13;2.90;;;;;;;;;;21078066;28;20109;-54
2022/01/31 05:28:22;;;;;;;5.50;3.10;;;;;;;;;;21076417;28;20450;-54
2022/01/31 05:38:44;;;;;;;4.53;3.00;;;;;;;;;;21081056;28;20048;-54
2022/01/31 05:49:06;;;;;;;6.88;3.28;;;;;;;;;;21090192;28;20048;-53
2022/01/31 05:59:27;;;;;;;7.93;3.33;;;;;;;;;;21089212;28;20052;-54
2022/01/31 06:09:49;;;;;;;6.82;3.42;;;;;;;;;;21088572;28;20466;-55
2022/01/31 06:20:11;;;;;;;5.65;3.40;;;;;;;;;;21088865;28;20074;-53
2022/01/31 06:30:33;;;;;;;8.65;4.68;;;;;;;;;;21087057;28;20052;-54
2022/01/31 06:40:55;;;;;;;11.80;4.07;;;;;;;;;;21086859;28;20056;-53
2022/01/31 06:51:16;;;;;;;10.70;3.85;;;;;;;;;;21085392;28;20416;-54
2022/01/31 07:01:38;;;;;;;9.50;3.42;;;;;;;;;;21084011;28;20067;-53
2022/01/31 07:11:59;;;;;;;9.35;4.30;;;;;;;;;;21083274;28;20056;-56
2022/01/31 07:22:26;;;;;;;9.20;3.80;;;;;;;;;;21083347;28;20430;-53
2022/01/31 07:32:48;;;;;;;16.38;6.95;;;;;;;;;;21081545;28;20055;-53
2022/01/31 07:43:09;;;;;;;17.67;7.60;;;;;;;;;;21081511;28;20503;-55
2022/01/31 07:53:31;;;;;;;10.68;5.75;;;;;;;;;;21080979;28;20044;-54
2022/01/31 08:03:52;;;;;;;9.27;3.80;;;;;;;;;;21078980;28;20047;-53
2022/01/31 08:14:17;;;;;;;16.48;4.63;;;;;;;;;;21078683;28;20043;-54
2022/01/31 08:24:38;;;;;;;9.20;5.38;;;;;;;;;;21078150;28;20051;-55
2022/01/31 08:45:24;;;;;;;11.63;6.97;;;;;;;;;;21077391;28;20437;-55
2022/01/31 08:55:50;;;;;;;15.60;5.10;;;;;;;;;;21078495;28;20055;-53
2022/01/31 09:05:52;;;;;;;20.98;8.07;;;;;;;;;;21076917;28;20056;-54
2022/01/31 09:15:55;;;;;;;12.40;6.22;;;;;;;;;;21085359;28;20048;-54
2022/01/31 09:26:18;;;;;;;11.63;5.35;;;;;;;;;;21091471;28;20093;-56
2022/01/31 09:36:40;;;;;;;12.07;5.88;;;;;;;;;;21090199;28;20105;-55
2022/01/31 09:47:07;;;;;;;11.75;6.07;;;;;;;;;;21089509;28;20058;-54
2022/01/31 09:57:26;;;;;;;22.52;7.93;;;;;;;;;;21089426;28;20066;-55
2022/01/31 10:07:43;;;;;;;20.05;8.73;;;;;;;;;;21088137;28;20139;-53
2022/01/31 10:17:45;;;;;;;24.70;10.10;;;;;;;;;;21087007;28;20094;-52
2022/01/31 10:27:48;;;;;;;18.92;8.90;;;;;;;;;;21085934;28;20498;-53
2022/01/31 10:38:13;;;;;;;30.50;9.55;;;;;;;;;;21086982;28;20472;-53
2022/01/31 10:59:02;;;;;;;19.30;9.98;;;;;;;;;;21083337;28;20048;-52
2022/01/31 11:09:22;;;;;;;25.30;12.20;;;;;;;;;;21082956;28;20043;-54
2022/01/31 11:19:35;;;;;;;19.98;11.88;;;;;;;;;;21080875;28;20048;-55
2022/01/31 11:29:45;;;;;;;19.63;8.75;;;;;;;;;;21082480;28;20083;-56
2022/01/31 11:39:57;;;;;;;14.88;7.82;;;;;;;;;;21080631;28;20182;-58
2022/01/31 11:50:00;;;;;;;10.90;6.25;;;;;;;;;;21091167;28;20050;-54
2022/01/31 12:00:04;;;;;;;10.68;5.57;;;;;;;;;;21102385;28;20055;-53
2022/01/31 12:10:22;;;;;;;15.40;5.20;;;;;;;;;;21096985;28;20052;-53
2022/01/31 12:21:59;;;;;;;12.43;5.72;;;;;;;;;;21161174;28;20565;-54
2022/01/31 12:31:24;;;;;;;20.42;6.93;;;;;;;;;;21162246;28;20055;-54
2022/01/31 12:41:31;;;;;;;116.95;18.02;;;;;;;;;;21152804;28;20043;-53
2022/01/31 12:51:52;;;;;;;47.88;9.25;;;;;;;;;;21114851;28;20048;-55
2022/01/31 13:01:54;;;;;;;14.20;7.72;;;;;;;;;;21092725;28;20067;-52
2022/01/31 13:11:57;;;;;;;18.83;7.25;;;;;;;;;;21103709;28;20047;-54
2022/01/31 13:22:00;;;;;;;14.02;6.50;;;;;;;;;;21091443;28;20071;-54
2022/01/31 13:32:16;;;;;;;14.60;6.93;;;;;;;;;;21090816;28;20480;-54
2022/01/31 13:42:23;;;;;;;13.43;7.15;;;;;;;;;;21089789;28;20102;-54
2022/01/31 13:52:31;;;;;;;14.93;7.78;;;;;;;;;;21088865;28;20048;-56
2022/01/31 14:02:37;;;;;;;13.52;8.30;;;;;;;;;;21087568;28;20143;-55
2022/01/31 14:12:40;;;;;;;22.30;9.30;;;;;;;;;;21087663;28;20055;-54
2022/01/31 14:22:41;;;;;;;16.95;8.20;;;;;;;;;;21085686;28;20044;-55
2022/01/31 14:32:44;;;;;;;17.30;7.95;;;;;;;;;;21086251;28;20132;-54
2022/01/31 14:43:08;;;;;;;13.73;8.18;;;;;;;;;;21085633;28;20051;-56
2022/01/31 14:53:15;;;;;;;13.50;8.48;;;;;;;;;;21083815;28;20044;-55
2022/01/31 15:03:19;;;;;;;12.75;7.75;;;;;;;;;;21083381;28;20079;-55
2022/01/31 15:13:21;;;;;;;13.75;8.32;;;;;;;;;;21083283;28;20119;-57
2022/01/31 15:23:38;;;;;;;12.25;7.50;;;;;;;;;;21082257;28;20052;-56
2022/01/31 15:33:46;;;;;;;10.85;7.13;;;;;;;;;;21084763;28;20508;-62
2022/01/31 15:43:50;;;;;;;10.43;7.10;;;;;;;;;;21082376;28;20052;-59
2022/01/31 15:53:52;;;;;;;12.93;8.70;;;;;;;;;;21080234;28;20048;-57
2022/01/31 16:03:54;;;;;;;13.15;8.10;;;;;;;;;;21079970;28;20044;-57
2022/01/31 16:13:59;;;;;;;10.70;5.18;;;;;;;;;;21078735;28;20044;-61
2022/01/31 16:24:00;;;;;;;9.38;5.07;;;;;;;;;;21077773;28;20446;-60
2022/01/31 16:34:05;;;;;;;8.25;4.35;;;;;;;;;;21077935;28;20068;-63
2022/01/31 16:44:07;;;;;;;4.10;1.70;;;;;;;;;;21118336;28;20047;-59
2022/01/31 16:54:09;;;;;;;2.35;1.17;;;;;;;;;;21160035;28;20518;-56
2022/01/31 17:04:11;;;;;;;6.05;1.80;;;;;;;;;;21159976;28;20055;-60
2022/01/31 17:14:14;;;;;;;4.38;2.13;;;;;;;;;;21160492;28;20052;-56
2022/01/31 17:24:15;;;;;;;4.75;2.47;;;;;;;;;;21161603;28;20532;-55
2022/01/31 17:34:19;;;;;;;5.57;1.92;;;;;;;;;;21167465;28;20444;-54
2022/01/31 17:44:24;;;;;;;6.55;2.67;;;;;;;;;;21176841;28;20054;-58
2022/01/31 17:54:26;;;;;;;6.60;3.90;;;;;;;;;;21174775;28;20156;-59
2022/01/31 18:04:29;;;;;;;10.65;3.50;;;;;;;;;;21172462;28;20077;-58
2022/01/31 18:14:32;;;;;;;19.95;9.13;;;;;;;;;;21161308;28;20059;-53
2022/01/31 18:24:34;;;;;;;8.25;3.78;;;;;;;;;;21162692;28;20055;-59
2022/01/31 18:34:36;;;;;;;11.95;6.15;;;;;;;;;;21168827;28;20434;-56
2022/01/31 18:44:39;;;;;;;4.47;2.17;;;;;;;;;;21167515;28;20101;-61
2022/01/31 18:54:41;;;;;;;8.05;2.22;;;;;;;;;;21167093;28;20051;-55
2022/01/31 19:04:45;;;;;;;3.95;1.65;;;;;;;;;;21166347;28;20059;-64
2022/01/31 19:24:49;;;;;;;4.32;1.42;;;;;;;;;;21157869;28;20047;-68
2022/01/31 19:34:51;;;;;;;3.88;2.15;;;;;;;;;;21094492;28;20044;-54
2022/01/31 19:44:54;;;;;;;3.05;1.88;;;;;;;;;;21079611;28;20047;-55
2022/01/31 19:54:56;;;;;;;8.75;2.75;;;;;;;;;;21079210;28;20055;-57
2022/01/31 20:04:58;;;;;;;6.15;3.65;;;;;;;;;;21078545;28;20059;-56
2022/01/31 20:15:00;;;;;;;4.13;1.98;;;;;;;;;;21078666;28;20063;-60
2022/01/31 20:25:01;;;;;;;7.45;3.17;;;;;;;;;;21079012;28;20056;-59
2022/01/31 20:35:04;;;;;;;6.80;2.40;;;;;;;;;;21079205;28;20047;-54
2022/01/31 20:45:08;;;;;;;8.95;3.65;;;;;;;;;;21079089;28;20416;-55
2022/01/31 20:55:10;;;;;;;10.18;5.50;;;;;;;;;;21077888;28;20046;-57
2022/01/31 21:05:15;;;;;;;6.25;2.65;;;;;;;;;;21077378;28;20453;-57
2022/01/31 21:15:17;;;;;;;3.58;1.73;;;;;;;;;;21092190;28;20056;-56
2022/01/31 21:25:19;;;;;;;2.70;1.00;;;;;;;;;;21092494;28;20056;-54
2022/01/31 21:35:21;;;;;;;2.83;1.00;;;;;;;;;;21092402;28;20048;-55
2022/01/31 21:45:23;;;;;;;8.45;2.75;;;;;;;;;;21091886;28;20048;-56
2022/01/31 21:55:25;;;;;;;4.07;1.42;;;;;;;;;;21090751;28;20051;-63
2022/01/31 22:05:28;;;;;;;4.30;1.60;;;;;;;;;;21090125;28;20051;-61
2022/01/31 22:15:31;;;;;;;4.78;0.95;;;;;;;;;;21089148;28;20054;-60
2022/01/31 22:25:33;;;;;;;2.50;1.05;;;;;;;;;;21087978;28;20048;-62
2022/01/31 22:35:35;;;;;;;2.42;0.90;;;;;;;;;;21087674;28;20058;-59
2022/01/31 22:45:37;;;;;;;1.90;0.88;;;;;;;;;;21086413;28;20393;-63
2022/01/31 22:55:39;;;;;;;1.38;0.63;;;;;;;;;;21084736;28;20044;-55
2022/01/31 23:05:41;;;;;;;1.60;0.70;;;;;;;;;;21084435;28;20048;-58
2022/01/31 23:15:51;;;;;;;1.30;0.98;;;;;;;;;;21083003;28;20082;-55
